createdAt,value
2019-03-03T00:02:29.190Z,100.00
2019-03-03T00:08:00.668Z,100.00
2019-03-03T00:10:30.019Z,100.00
2019-03-03T00:12:59.363Z,100.00
2019-03-03T00:15:28.708Z,100.00
2019-03-03T00:21:00.210Z,100.00
2019-03-03T00:23:29.556Z,100.00
2019-03-03T00:25:58.903Z,100.00
2019-03-03T00:28:28.252Z,100.00
2019-03-03T00:30:57.596Z,100.00
2019-03-03T00:33:26.924Z,100.00
2019-03-03T00:35:56.270Z,100.00
2019-03-03T00:38:44.369Z,100.00
2019-03-03T00:47:37.372Z,100.00
2019-03-03T00:50:26.315Z,100.00
2019-03-03T00:53:15.102Z,100.00
2019-03-03T00:55:52.744Z,100.00
2019-03-03T00:58:41.593Z,100.00
2019-03-03T01:01:29.592Z,100.00
2019-03-03T01:04:17.811Z,100.00
2019-03-03T01:07:05.898Z,100.00
2019-03-03T01:09:40.227Z,100.00
2019-03-03T01:12:28.320Z,100.00
2019-03-03T01:15:16.418Z,100.00
2019-03-03T01:18:04.574Z,100.00
2019-03-03T01:20:52.760Z,100.00
2019-03-03T01:23:40.768Z,100.00
2019-03-03T01:26:10.087Z,100.00
2019-03-03T01:28:39.521Z,100.00
2019-03-03T01:31:08.030Z,100.00
2019-03-03T01:33:36.663Z,100.00
2019-03-03T01:36:06.008Z,100.00
2019-03-03T01:38:35.331Z,100.00
2019-03-03T01:41:06.295Z,100.00
2019-03-03T01:43:53.893Z,100.00
2019-03-03T01:46:23.232Z,100.00
2019-03-03T01:48:52.573Z,100.00
2019-03-03T01:51:21.912Z,100.00
2019-03-03T01:53:51.246Z,100.00
2019-03-03T01:56:31.730Z,100.00
2019-03-03T01:59:00.351Z,100.00
2019-03-03T02:01:29.694Z,100.00
2019-03-03T02:03:59.039Z,100.00
2019-03-03T02:06:28.368Z,100.00
2019-03-03T02:08:57.728Z,100.00
2019-03-03T02:11:27.159Z,100.00
2019-03-03T02:13:56.493Z,100.00
2019-03-03T02:16:25.926Z,100.00
2019-03-03T02:18:55.268Z,100.00
2019-03-03T02:21:24.602Z,100.00
2019-03-03T02:23:53.241Z,100.00
2019-03-03T02:26:21.872Z,100.00
2019-03-03T02:28:51.202Z,100.00
2019-03-03T02:31:20.561Z,100.00
2019-03-03T02:33:49.895Z,100.00
2019-03-03T02:36:19.222Z,100.00
2019-03-03T02:38:48.548Z,100.00
2019-03-03T02:41:17.868Z,100.00
2019-03-03T02:43:46.615Z,100.00
2019-03-03T02:46:15.940Z,100.00
2019-03-03T02:48:45.279Z,100.00
2019-03-03T02:51:13.908Z,100.00
2019-03-03T02:53:42.548Z,100.00
2019-03-03T02:56:11.890Z,100.00
2019-03-03T02:58:41.227Z,100.00
2019-03-03T03:01:30.011Z,100.00
2019-03-03T03:07:00.122Z,100.00
2019-03-03T03:09:38.497Z,100.00
2019-03-03T03:12:13.323Z,100.00
2019-03-03T03:15:01.435Z,100.00
2019-03-03T03:17:49.435Z,100.00
2019-03-03T03:20:37.584Z,100.00
2019-03-03T03:23:26.356Z,100.00
2019-03-03T03:26:15.150Z,100.00
2019-03-03T03:29:03.119Z,100.00
2019-03-03T03:31:51.324Z,100.00
2019-03-03T03:34:24.896Z,100.00
2019-03-03T03:37:13.032Z,100.00
2019-03-03T03:39:48.141Z,100.00
2019-03-03T03:45:38.533Z,100.00
2019-03-03T03:48:26.726Z,100.00
2019-03-03T03:51:14.715Z,100.00
2019-03-03T03:53:54.543Z,100.00
2019-03-03T03:59:45.912Z,100.00
2019-03-03T04:02:34.226Z,100.00
2019-03-03T04:08:10.533Z,100.00
2019-03-03T04:10:59.330Z,100.00
2019-03-03T04:13:47.425Z,100.00
2019-03-03T04:16:35.535Z,100.00
2019-03-03T04:19:24.328Z,100.00
2019-03-03T04:22:04.971Z,100.00
2019-03-03T04:24:48.851Z,100.00
2019-03-03T04:27:33.019Z,100.00
2019-03-03T04:30:21.888Z,100.00
2019-03-03T04:33:01.811Z,100.00
2019-03-03T04:35:49.905Z,100.00
2019-03-03T04:38:30.424Z,100.00
2019-03-03T04:41:18.532Z,100.00
2019-03-03T04:44:07.329Z,100.00
2019-03-03T04:46:41.270Z,100.00
2019-03-03T04:49:30.069Z,100.00
2019-03-03T04:52:18.148Z,100.00
2019-03-03T04:55:06.233Z,100.00
2019-03-03T04:57:54.381Z,100.00
2019-03-03T05:00:41.579Z,100.00
2019-03-03T05:03:26.782Z,100.00
2019-03-03T05:06:14.893Z,100.00
2019-03-03T05:09:02.872Z,100.00
2019-03-03T05:12:32.872Z,100.00
2019-03-03T05:15:20.959Z,100.00
2019-03-03T05:17:55.603Z,100.00
2019-03-03T05:20:24.231Z,100.00
2019-03-03T05:22:52.876Z,100.00
2019-03-03T05:25:22.971Z,100.00
2019-03-03T05:28:10.640Z,100.00
2019-03-03T05:30:39.988Z,100.00
2019-03-03T05:33:09.347Z,100.00
2019-03-03T05:35:38.734Z,100.00
2019-03-03T05:38:08.066Z,100.00
2019-03-03T05:40:37.394Z,100.00
2019-03-03T05:43:06.729Z,100.00
2019-03-03T05:45:35.354Z,100.00
2019-03-03T05:48:04.682Z,100.00
2019-03-03T05:50:34.070Z,100.00
2019-03-03T05:53:03.454Z,100.00
2019-03-03T05:55:32.784Z,100.00
2019-03-03T05:58:02.119Z,100.00
2019-03-03T06:00:31.464Z,100.00
2019-03-03T06:03:00.083Z,100.00
2019-03-03T06:05:29.419Z,100.00
2019-03-03T06:07:58.757Z,100.00
2019-03-03T06:10:28.107Z,100.00
2019-03-03T06:12:56.722Z,100.00
2019-03-03T06:15:25.348Z,100.00
2019-03-03T06:17:54.683Z,100.00
2019-03-03T06:20:24.016Z,100.00
2019-03-03T06:22:53.381Z,100.00
2019-03-03T06:25:22.727Z,100.00
2019-03-03T06:27:52.058Z,100.00
2019-03-03T06:30:21.412Z,100.00
2019-03-03T06:32:50.749Z,100.00
2019-03-03T06:35:19.576Z,100.00
2019-03-03T06:37:48.124Z,100.00
2019-03-03T06:40:17.452Z,100.00
2019-03-03T06:42:46.799Z,100.00
2019-03-03T06:45:16.165Z,100.00
2019-03-03T06:47:45.506Z,100.00
2019-03-03T06:50:14.939Z,100.00
2019-03-03T06:52:44.264Z,100.00
2019-03-03T06:55:13.613Z,100.00
2019-03-03T06:57:42.937Z,100.00
2019-03-03T07:00:31.666Z,100.00
2019-03-03T07:03:01.028Z,100.00
2019-03-03T07:05:30.366Z,100.00
2019-03-03T07:07:58.910Z,100.00
2019-03-03T07:10:28.248Z,100.00
2019-03-03T07:12:57.577Z,100.00
2019-03-03T07:15:26.906Z,100.00
2019-03-03T07:17:56.295Z,100.00
2019-03-03T07:20:25.652Z,100.00
2019-03-03T07:22:54.991Z,100.00
2019-03-03T07:25:24.318Z,100.00
2019-03-03T07:27:53.157Z,100.00
2019-03-03T07:30:21.688Z,100.00
2019-03-03T07:33:10.559Z,100.00
2019-03-03T07:35:39.957Z,100.00
2019-03-03T07:38:09.322Z,100.00
2019-03-03T07:40:50.494Z,100.00
2019-03-03T07:43:19.239Z,100.00
2019-03-03T07:45:49.008Z,100.00
2019-03-03T07:48:17.777Z,100.00
2019-03-03T07:50:47.951Z,100.00
2019-03-03T07:53:17.312Z,100.00
2019-03-03T07:55:45.949Z,100.00
2019-03-03T07:58:14.492Z,100.00
2019-03-03T08:00:43.832Z,100.00
2019-03-03T08:03:13.163Z,100.00
2019-03-03T08:05:42.517Z,99.68
2019-03-03T08:08:11.856Z,99.66
2019-03-03T08:10:41.198Z,99.66
2019-03-03T08:13:10.832Z,99.58
2019-03-03T08:15:40.225Z,99.08
2019-03-03T08:18:09.561Z,100.00
2019-03-03T08:20:38.907Z,99.76
2019-03-03T08:23:07.445Z,97.87
2019-03-03T08:25:36.074Z,99.37
2019-03-03T08:28:04.804Z,98.19
2019-03-03T08:30:34.240Z,97.84
2019-03-03T08:33:03.692Z,97.87
2019-03-03T08:35:33.026Z,97.18
2019-03-03T08:38:02.363Z,96.20
2019-03-03T08:40:31.719Z,96.36
2019-03-03T08:43:20.525Z,95.86
2019-03-03T08:46:09.380Z,97.30
2019-03-03T08:48:52.092Z,98.21
2019-03-03T08:51:40.972Z,95.59
2019-03-03T08:54:29.782Z,94.32
2019-03-03T08:57:18.584Z,94.60
2019-03-03T09:00:06.899Z,94.73
2019-03-03T09:02:55.758Z,95.51
2019-03-03T09:05:44.561Z,93.14
2019-03-03T09:08:33.365Z,93.93
2019-03-03T09:11:22.170Z,94.92
2019-03-03T09:14:10.986Z,95.95
2019-03-03T09:16:59.139Z,96.04
2019-03-03T09:19:47.157Z,96.07
2019-03-03T09:22:35.260Z,94.13
2019-03-03T09:25:24.004Z,93.44
2019-03-03T09:28:01.221Z,92.61
2019-03-03T09:30:42.037Z,95.24
2019-03-03T09:33:30.224Z,94.66
2019-03-03T09:36:18.275Z,87.06
2019-03-03T09:39:06.457Z,88.14
2019-03-03T09:41:55.271Z,91.21
2019-03-03T09:44:43.368Z,93.26
2019-03-03T09:47:32.271Z,87.31
2019-03-03T09:50:20.368Z,86.06
2019-03-03T09:53:08.649Z,86.38
2019-03-03T09:55:57.486Z,86.71
2019-03-03T09:58:45.599Z,87.68
2019-03-03T10:01:34.409Z,87.63
2019-03-03T10:04:23.322Z,88.62
2019-03-03T10:07:13.574Z,87.49
2019-03-03T10:10:01.420Z,86.42
2019-03-03T10:12:49.442Z,86.85
2019-03-03T10:15:38.257Z,88.27
2019-03-03T10:18:27.156Z,86.97
2019-03-03T10:21:16.068Z,85.58
2019-03-03T10:24:04.935Z,85.23
2019-03-03T10:26:53.740Z,90.21
2019-03-03T10:29:41.755Z,90.44
2019-03-03T10:32:29.916Z,87.18
2019-03-03T10:35:18.715Z,86.56
2019-03-03T10:38:07.532Z,85.13
2019-03-03T10:40:55.563Z,84.03
2019-03-03T10:43:43.957Z,87.38
2019-03-03T10:46:32.090Z,84.29
2019-03-03T10:49:20.933Z,83.39
2019-03-03T10:52:00.001Z,82.31
2019-03-03T10:54:42.605Z,82.77
2019-03-03T10:57:21.788Z,82.78
2019-03-03T11:00:09.903Z,81.77
2019-03-03T11:02:58.928Z,83.11
2019-03-03T11:05:47.140Z,83.47
2019-03-03T11:08:35.340Z,83.14
2019-03-03T11:11:39.239Z,81.77
2019-03-03T11:14:24.005Z,80.93
2019-03-03T11:17:12.808Z,79.26
2019-03-03T11:20:00.913Z,76.26
2019-03-03T11:22:49.199Z,77.65
2019-03-03T11:25:37.304Z,76.15
2019-03-03T11:31:08.089Z,75.78
2019-03-03T11:33:56.297Z,77.25
2019-03-03T11:36:32.225Z,82.04
2019-03-03T11:39:21.278Z,76.43
2019-03-03T11:42:09.613Z,77.17
2019-03-03T11:44:57.728Z,76.02
2019-03-03T11:47:45.859Z,76.32
2019-03-03T11:50:34.865Z,77.65
2019-03-03T11:53:23.769Z,76.05
2019-03-03T11:56:12.624Z,76.19
2019-03-03T11:58:48.895Z,80.29
2019-03-03T12:01:37.156Z,76.78
2019-03-03T12:04:26.020Z,76.36
2019-03-03T12:07:14.191Z,79.01
2019-03-03T12:10:03.007Z,78.09
2019-03-03T12:12:51.200Z,80.82
2019-03-03T12:15:29.810Z,78.98
2019-03-03T12:18:05.607Z,82.59
2019-03-03T12:20:54.538Z,81.99
2019-03-03T12:23:43.405Z,78.86
2019-03-03T12:26:32.414Z,80.76
2019-03-03T12:29:20.686Z,76.73
2019-03-03T12:32:08.890Z,81.93
2019-03-03T12:34:58.190Z,77.50
2019-03-03T12:37:47.014Z,76.86
2019-03-03T12:40:35.816Z,81.66
2019-03-03T12:43:23.817Z,75.82
2019-03-03T12:46:11.943Z,79.36
2019-03-03T12:48:51.145Z,76.00
2019-03-03T12:51:39.949Z,76.58
2019-03-03T12:54:28.169Z,79.58
2019-03-03T12:57:16.965Z,78.86
2019-03-03T13:00:05.079Z,81.75
2019-03-03T13:02:53.290Z,73.87
2019-03-03T13:05:41.316Z,73.40
2019-03-03T13:08:18.992Z,74.87
2019-03-03T13:11:07.793Z,74.24
2019-03-03T13:13:55.903Z,75.51
2019-03-03T13:16:44.029Z,74.95
2019-03-03T13:19:32.847Z,73.07
2019-03-03T13:22:20.976Z,72.45
2019-03-03T13:25:09.951Z,74.16
2019-03-03T13:27:58.862Z,72.73
2019-03-03T13:30:34.193Z,71.83
2019-03-03T13:35:55.108Z,73.04
2019-03-03T13:38:43.906Z,73.65
2019-03-03T13:41:31.910Z,72.29
2019-03-03T13:44:00.690Z,72.14
2019-03-03T13:46:30.155Z,73.17
2019-03-03T13:48:59.490Z,72.54
2019-03-03T13:51:28.422Z,73.18
2019-03-03T13:53:56.964Z,74.06
2019-03-03T13:56:26.330Z,73.06
2019-03-03T14:01:39.060Z,73.59
2019-03-03T14:04:08.489Z,78.50
2019-03-03T14:06:37.062Z,78.34
2019-03-03T14:12:09.795Z,78.68
2019-03-03T14:14:38.439Z,77.54
2019-03-03T14:17:08.536Z,78.78
2019-03-03T14:19:37.927Z,78.59
2019-03-03T14:22:07.272Z,82.21
2019-03-03T14:24:36.655Z,80.19
2019-03-03T14:27:10.465Z,81.05
2019-03-03T14:29:55.245Z,80.17
2019-03-03T14:32:24.606Z,84.20
2019-03-03T14:34:53.972Z,79.44
2019-03-03T14:37:22.648Z,76.78
2019-03-03T14:40:12.549Z,82.15
2019-03-03T14:42:42.003Z,76.69
2019-03-03T14:45:13.143Z,80.77
2019-03-03T14:47:41.894Z,76.52
2019-03-03T14:50:15.254Z,77.95
2019-03-03T14:52:45.178Z,78.01
2019-03-03T14:55:17.308Z,78.85
2019-03-03T14:57:46.059Z,77.93
2019-03-03T15:00:34.746Z,78.70
2019-03-03T15:03:05.970Z,81.67
2019-03-03T15:05:34.822Z,78.82
2019-03-03T15:08:03.706Z,79.10
2019-03-03T15:10:32.326Z,78.97
2019-03-03T15:16:04.045Z,79.91
2019-03-03T15:18:33.384Z,81.03
2019-03-03T15:21:02.828Z,83.71
2019-03-03T15:23:32.181Z,84.24
2019-03-03T15:29:04.209Z,82.83
2019-03-03T15:34:34.961Z,82.52
2019-03-03T15:39:44.562Z,81.01
2019-03-03T15:42:13.215Z,82.76
2019-03-03T15:44:42.663Z,82.39
2019-03-03T15:47:12.016Z,83.04
2019-03-03T15:49:41.360Z,82.57
2019-03-03T15:52:10.685Z,83.10
2019-03-03T15:54:39.322Z,82.59
2019-03-03T15:57:08.856Z,81.98
2019-03-03T15:59:37.495Z,81.66
2019-03-03T16:05:09.868Z,81.64
2019-03-03T16:07:39.271Z,85.98
2019-03-03T16:10:09.594Z,82.94
2019-03-03T16:12:39.026Z,83.97
2019-03-03T16:15:09.284Z,82.81
2019-03-03T16:17:37.939Z,85.32
2019-03-03T16:23:09.404Z,87.79
2019-03-03T16:25:59.269Z,93.39
2019-03-03T16:28:28.592Z,94.55
2019-03-03T16:34:00.316Z,95.81
2019-03-03T16:36:28.959Z,93.11
2019-03-03T16:41:59.685Z,93.73
2019-03-03T16:44:28.252Z,93.27
2019-03-03T16:46:57.613Z,93.42
2019-03-03T16:49:26.951Z,92.00
2019-03-03T16:51:56.810Z,92.94
2019-03-03T16:54:26.147Z,92.71
2019-03-03T16:56:55.652Z,93.39
2019-03-03T16:59:24.207Z,91.32
2019-03-03T17:01:53.545Z,92.61
2019-03-03T17:04:22.908Z,92.19
2019-03-03T17:06:52.413Z,92.57
2019-03-03T17:09:21.074Z,91.83
2019-03-03T17:11:50.458Z,90.12
2019-03-03T17:14:19.014Z,90.59
2019-03-03T17:16:48.361Z,92.00
2019-03-03T17:19:17.697Z,93.15
2019-03-03T17:21:47.059Z,93.95
2019-03-03T17:24:16.406Z,94.99
2019-03-03T17:26:45.767Z,92.32
2019-03-03T17:29:15.202Z,93.15
2019-03-03T17:31:43.895Z,91.09
2019-03-03T17:34:13.454Z,92.90
2019-03-03T17:36:41.999Z,93.68
2019-03-03T17:39:11.532Z,90.20
2019-03-03T17:41:40.942Z,93.29
2019-03-03T17:44:10.286Z,92.97
2019-03-03T17:46:39.628Z,93.44
2019-03-03T17:49:08.981Z,94.05
2019-03-03T17:51:38.447Z,94.57
2019-03-03T17:54:07.799Z,92.64
2019-03-03T17:56:37.133Z,92.18
2019-03-03T17:59:05.781Z,92.96
2019-03-03T18:01:34.687Z,91.92
2019-03-03T18:04:04.183Z,93.96
2019-03-03T18:06:38.690Z,91.44
2019-03-03T18:09:22.840Z,92.65
2019-03-03T18:11:52.193Z,93.56
2019-03-03T18:14:21.532Z,92.89
2019-03-03T18:16:51.576Z,92.43
2019-03-03T18:19:20.933Z,93.64
2019-03-03T18:21:50.292Z,93.35
2019-03-03T18:24:19.010Z,93.24
2019-03-03T18:26:47.755Z,92.88
2019-03-03T18:29:16.540Z,92.88
2019-03-03T18:31:45.863Z,93.58
2019-03-03T18:34:15.215Z,95.14
2019-03-03T18:36:44.794Z,95.55
2019-03-03T18:39:26.249Z,95.02
2019-03-03T18:41:54.985Z,95.55
2019-03-03T18:44:24.469Z,97.50
2019-03-03T18:46:53.828Z,97.12
2019-03-03T18:49:23.807Z,96.96
2019-03-03T18:51:53.531Z,97.07
2019-03-03T18:54:22.877Z,97.93
2019-03-03T18:56:52.293Z,98.84
2019-03-03T18:59:21.639Z,98.21
2019-03-03T19:01:51.006Z,97.80
2019-03-03T19:04:19.751Z,97.43
2019-03-03T19:06:48.433Z,96.97
2019-03-03T19:12:32.722Z,95.97
2019-03-03T19:15:02.367Z,96.09
2019-03-03T19:17:31.739Z,96.37
2019-03-03T19:20:00.371Z,95.86
2019-03-03T19:22:29.060Z,97.74
2019-03-03T19:24:58.682Z,96.96
2019-03-03T19:27:28.030Z,98.84
2019-03-03T19:29:57.385Z,99.00
2019-03-03T19:32:26.723Z,98.47
2019-03-03T19:34:56.057Z,96.95
2019-03-03T19:37:24.711Z,97.24
2019-03-03T19:39:54.052Z,98.32
2019-03-03T19:42:23.417Z,98.45
2019-03-03T19:44:52.282Z,98.72
2019-03-03T19:47:20.930Z,98.16
2019-03-03T19:49:50.519Z,98.21
2019-03-03T19:52:39.611Z,97.82
2019-03-03T19:55:09.869Z,97.28
2019-03-03T19:57:50.851Z,96.62
2019-03-03T20:00:22.772Z,96.36
2019-03-03T20:02:51.509Z,97.26
2019-03-03T20:05:20.859Z,97.19
2019-03-03T20:07:50.308Z,97.01
2019-03-03T20:10:19.966Z,97.73
2019-03-03T20:15:51.635Z,97.88
2019-03-03T20:18:21.100Z,97.91
2019-03-03T20:20:50.449Z,97.86
2019-03-03T20:23:19.918Z,98.72
2019-03-03T20:25:49.268Z,98.37
2019-03-03T20:28:18.708Z,98.55
2019-03-03T20:33:27.561Z,99.00
2019-03-03T20:35:56.872Z,98.85
2019-03-03T20:38:25.524Z,100.00
2019-03-03T20:40:54.982Z,100.00
2019-03-03T20:43:23.626Z,100.00
2019-03-03T20:45:53.273Z,100.00
2019-03-03T20:48:22.720Z,100.00
2019-03-03T20:50:52.192Z,100.00
2019-03-03T20:53:20.825Z,100.00
2019-03-03T20:55:50.189Z,100.00
2019-03-03T20:58:19.535Z,100.00
2019-03-03T21:00:49.182Z,100.00
2019-03-03T21:03:17.812Z,100.00
2019-03-03T21:05:46.461Z,100.00
2019-03-03T21:08:15.091Z,100.00
2019-03-03T21:10:44.417Z,100.00
2019-03-03T21:13:13.838Z,100.00
2019-03-03T21:15:43.136Z,100.00
2019-03-03T21:18:11.778Z,100.00
2019-03-03T21:20:41.111Z,100.00
2019-03-03T21:23:13.331Z,100.00
2019-03-03T21:25:42.862Z,100.00
2019-03-03T21:28:12.196Z,100.00
2019-03-03T21:30:40.736Z,100.00
2019-03-03T21:33:10.088Z,100.00
2019-03-03T21:35:38.633Z,100.00
2019-03-03T21:38:07.251Z,100.00
2019-03-03T21:40:36.602Z,100.00
2019-03-03T21:43:05.980Z,100.00
2019-03-03T21:45:35.335Z,100.00
2019-03-03T21:50:47.494Z,100.00
2019-03-03T21:53:16.824Z,100.00
2019-03-03T21:55:45.561Z,100.00
2019-03-03T21:58:14.897Z,100.00
2019-03-03T22:00:44.450Z,100.00
2019-03-03T22:03:13.796Z,100.00
2019-03-03T22:05:43.150Z,100.00
2019-03-03T22:08:12.587Z,100.00
2019-03-03T22:10:41.943Z,100.00
2019-03-03T22:13:11.735Z,100.00
2019-03-03T22:15:40.376Z,100.00
2019-03-03T22:18:09.805Z,100.00
2019-03-03T22:20:39.242Z,100.00
2019-03-03T22:23:08.575Z,100.00
2019-03-03T22:25:38.179Z,100.00
2019-03-03T22:28:07.509Z,100.00
2019-03-03T22:30:36.830Z,100.00
2019-03-03T22:33:06.175Z,100.00
2019-03-03T22:35:35.513Z,100.00
2019-03-03T22:38:04.850Z,100.00
2019-03-03T22:40:33.482Z,100.00
2019-03-03T22:43:02.150Z,100.00
2019-03-03T22:45:31.503Z,100.00
2019-03-03T22:48:00.816Z,100.00
2019-03-03T22:50:44.563Z,100.00
2019-03-03T22:53:19.959Z,100.00
2019-03-03T22:55:49.300Z,100.00
2019-03-03T22:58:18.637Z,100.00
2019-03-03T23:01:17.442Z,100.00
2019-03-03T23:04:24.823Z,100.00
2019-03-03T23:07:08.481Z,100.00
2019-03-03T23:10:10.544Z,100.00
2019-03-03T23:13:04.417Z,100.00
2019-03-03T23:16:11.834Z,100.00
2019-03-03T23:19:22.399Z,100.00
2019-03-03T23:22:30.527Z,100.00
2019-03-03T23:25:38.625Z,100.00
2019-03-03T23:28:07.971Z,100.00
2019-03-03T23:30:36.619Z,100.00
2019-03-03T23:33:05.945Z,100.00
2019-03-03T23:35:35.299Z,100.00
2019-03-03T23:38:04.639Z,100.00
2019-03-03T23:40:33.993Z,100.00
2019-03-03T23:43:03.460Z,100.00
2019-03-03T23:45:32.799Z,100.00
2019-03-03T23:48:02.146Z,100.00
2019-03-03T23:50:32.615Z,100.00
2019-03-03T23:53:01.236Z,100.00
2019-03-03T23:55:29.873Z,100.00
2019-03-03T23:57:58.788Z,100.00
